Time;durP1;ratioP1;P1;durP2;ratioP2;P2;SDS_P1;SDS_P2;PMS_P1;PMS_P2;Temp;Humidity;BMP_temperature;BMP_pressure;BME280_temperature;BME280_humidity;BME280_pressure;Samples;Min_cycle;Max_cycle;Signal;HPM_P1;HPM_P2
2021/08/15 00:01:46;;;;;;;11.68;5.97;;;;;;;;;;5118035;28;20039;-69
2021/08/15 00:04:12;;;;;;;10.50;6.47;;;;;;;;;;5118048;28;20024;-68
2021/08/15 00:06:38;;;;;;;9.80;5.50;;;;;;;;;;5117967;28;20422;-68
2021/08/15 00:09:05;;;;;;;6.47;5.50;;;;;;;;;;5117597;28;20356;-69
2021/08/15 00:11:33;;;;;;;8.55;5.75;;;;;;;;;;5117514;28;20180;-69
2021/08/15 00:13:59;;;;;;;13.30;5.85;;;;;;;;;;5117748;28;20038;-68
2021/08/15 00:16:25;;;;;;;7.20;5.72;;;;;;;;;;5117788;28;20031;-68
2021/08/15 00:18:51;;;;;;;10.85;5.75;;;;;;;;;;5117805;28;20031;-69
2021/08/15 00:21:17;;;;;;;12.57;5.93;;;;;;;;;;5117522;28;20028;-70
2021/08/15 00:23:43;;;;;;;15.85;6.05;;;;;;;;;;5117409;28;20035;-69
2021/08/15 00:26:09;;;;;;;12.27;6.35;;;;;;;;;;5117445;28;20036;-68
2021/08/15 00:28:36;;;;;;;9.60;6.03;;;;;;;;;;5117405;28;20032;-68
2021/08/15 00:31:02;;;;;;;7.18;6.03;;;;;;;;;;5117315;28;20488;-68
2021/08/15 00:33:29;;;;;;;13.20;5.63;;;;;;;;;;5117486;28;20043;-68
2021/08/15 00:35:55;;;;;;;11.52;6.10;;;;;;;;;;5116996;28;20043;-68
2021/08/15 00:38:21;;;;;;;8.48;6.20;;;;;;;;;;5117227;28;20088;-68
2021/08/15 00:40:47;;;;;;;10.73;6.00;;;;;;;;;;5117104;28;20024;-68
2021/08/15 00:43:13;;;;;;;6.05;5.45;;;;;;;;;;5117135;28;20115;-69
2021/08/15 00:45:39;;;;;;;13.50;6.00;;;;;;;;;;5117008;28;20060;-70
2021/08/15 00:48:08;;;;;;;12.88;5.60;;;;;;;;;;5117172;28;20074;-68
2021/08/15 00:50:34;;;;;;;7.55;6.15;;;;;;;;;;5117131;28;20035;-68
2021/08/15 00:53:00;;;;;;;11.13;5.78;;;;;;;;;;5116935;28;20047;-70
2021/08/15 00:55:26;;;;;;;12.02;5.80;;;;;;;;;;5116585;28;20120;-68
2021/08/15 00:57:52;;;;;;;8.80;5.38;;;;;;;;;;5116411;28;20031;-69
2021/08/15 01:00:18;;;;;;;6.75;5.97;;;;;;;;;;5116973;28;20027;-68
2021/08/15 01:02:47;;;;;;;8.45;5.97;;;;;;;;;;5116712;28;20479;-68
2021/08/15 01:05:13;;;;;;;11.30;5.82;;;;;;;;;;5116527;28;20024;-68
2021/08/15 01:07:40;;;;;;;6.90;5.32;;;;;;;;;;5117192;28;20040;-68
2021/08/15 01:10:06;;;;;;;13.45;5.95;;;;;;;;;;5116652;28;20038;-68
2021/08/15 01:12:32;;;;;;;7.88;5.55;;;;;;;;;;5116241;28;20047;-69
2021/08/15 01:14:59;;;;;;;9.23;5.50;;;;;;;;;;5116425;28;20488;-68
2021/08/15 01:17:26;;;;;;;15.05;6.10;;;;;;;;;;5116599;28;20028;-69
2021/08/15 01:19:53;;;;;;;9.15;5.00;;;;;;;;;;5116492;28;20032;-68
2021/08/15 01:22:19;;;;;;;6.13;4.80;;;;;;;;;;5116230;28;20365;-68
2021/08/15 01:24:45;;;;;;;10.98;5.22;;;;;;;;;;5116238;28;20391;-68
2021/08/15 01:27:11;;;;;;;6.95;5.50;;;;;;;;;;5116223;28;20114;-68
2021/08/15 01:29:37;;;;;;;10.52;5.28;;;;;;;;;;5116061;28;20032;-69
2021/08/15 01:32:03;;;;;;;11.18;5.40;;;;;;;;;;5116119;28;20089;-68
2021/08/15 01:34:29;;;;;;;10.10;5.47;;;;;;;;;;5116147;28;20035;-68
2021/08/15 01:36:55;;;;;;;10.50;5.10;;;;;;;;;;5097765;28;20040;-69
2021/08/15 01:39:21;;;;;;;8.80;5.40;;;;;;;;;;5115883;28;20035;-69
2021/08/15 01:41:47;;;;;;;9.60;5.18;;;;;;;;;;5115852;28;20045;-68
2021/08/15 01:44:13;;;;;;;6.80;5.38;;;;;;;;;;5115817;28;20032;-68
2021/08/15 01:46:39;;;;;;;9.45;5.50;;;;;;;;;;5115828;28;20047;-68
2021/08/15 01:49:05;;;;;;;7.38;5.63;;;;;;;;;;5115724;28;20030;-68
2021/08/15 01:51:31;;;;;;;8.90;5.63;;;;;;;;;;5115510;28;20396;-68
2021/08/15 01:54:00;;;;;;;13.30;5.28;;;;;;;;;;5115562;28;20028;-70
2021/08/15 01:56:26;;;;;;;10.32;5.03;;;;;;;;;;5115789;28;20040;-68
2021/08/15 01:58:52;;;;;;;8.27;5.65;;;;;;;;;;5115593;28;20452;-68
2021/08/15 02:01:19;;;;;;;8.93;5.32;;;;;;;;;;5115730;28;20066;-68
2021/08/15 02:03:46;;;;;;;6.25;4.50;;;;;;;;;;5097414;28;20035;-68
2021/08/15 02:06:12;;;;;;;13.30;5.13;;;;;;;;;;5115459;28;20034;-68
2021/08/15 02:08:38;;;;;;;8.75;5.32;;;;;;;;;;5115616;28;20060;-68
2021/08/15 02:11:04;;;;;;;12.65;4.93;;;;;;;;;;5115760;28;20093;-68
2021/08/15 02:13:30;;;;;;;7.30;5.57;;;;;;;;;;5115301;28;20052;-68
2021/08/15 02:15:57;;;;;;;9.02;4.78;;;;;;;;;;5115091;28;20054;-69
2021/08/15 02:18:23;;;;;;;10.45;5.75;;;;;;;;;;5115309;28;20081;-69
2021/08/15 02:20:49;;;;;;;8.70;4.90;;;;;;;;;;5114588;28;20032;-68
2021/08/15 02:23:15;;;;;;;8.25;4.82;;;;;;;;;;5115363;28;20032;-68
2021/08/15 02:25:41;;;;;;;9.63;5.45;;;;;;;;;;5115116;28;20031;-68
2021/08/15 02:28:07;;;;;;;8.40;5.00;;;;;;;;;;5115166;28;20030;-68
2021/08/15 02:30:34;;;;;;;6.07;5.10;;;;;;;;;;5115096;28;20157;-68
2021/08/15 02:33:00;;;;;;;6.80;4.95;;;;;;;;;;5115362;28;20445;-68
2021/08/15 02:35:31;;;;;;;11.52;5.30;;;;;;;;;;5114855;28;20047;-68
2021/08/15 02:37:57;;;;;;;9.07;5.20;;;;;;;;;;5114960;28;20032;-68
2021/08/15 02:40:23;;;;;;;13.48;5.45;;;;;;;;;;5114971;28;20048;-68
2021/08/15 02:42:50;;;;;;;7.88;5.10;;;;;;;;;;5114806;28;20106;-70
2021/08/15 02:45:17;;;;;;;12.43;4.90;;;;;;;;;;5114635;28;20039;-68
2021/08/15 02:47:43;;;;;;;7.43;4.95;;;;;;;;;;5114601;28;20027;-69
2021/08/15 02:50:10;;;;;;;9.82;5.85;;;;;;;;;;5114664;28;20455;-68
2021/08/15 02:52:36;;;;;;;6.00;4.63;;;;;;;;;;5114628;28;20502;-68
2021/08/15 02:55:02;;;;;;;8.55;5.40;;;;;;;;;;5114568;28;20046;-68
2021/08/15 02:57:28;;;;;;;7.28;5.15;;;;;;;;;;5114255;28;20032;-68
2021/08/15 02:59:54;;;;;;;7.28;4.65;;;;;;;;;;5114587;28;20091;-68
2021/08/15 03:02:21;;;;;;;8.27;4.85;;;;;;;;;;5114310;28;20113;-68
2021/08/15 03:04:47;;;;;;;8.95;4.10;;;;;;;;;;5114316;28;20141;-68
2021/08/15 03:07:14;;;;;;;6.82;4.15;;;;;;;;;;5114487;28;20036;-68
2021/08/15 03:09:40;;;;;;;11.10;5.07;;;;;;;;;;5114345;28;20077;-68
2021/08/15 03:12:06;;;;;;;6.78;4.85;;;;;;;;;;5114452;28;20043;-68
2021/08/15 03:14:32;;;;;;;6.93;5.00;;;;;;;;;;5114198;28;20039;-68
2021/08/15 03:16:58;;;;;;;9.63;5.22;;;;;;;;;;5114147;28;20637;-68
2021/08/15 03:19:24;;;;;;;5.65;4.93;;;;;;;;;;5114058;28;20147;-69
2021/08/15 03:21:50;;;;;;;6.32;4.47;;;;;;;;;;5114204;28;20110;-69
2021/08/15 03:24:16;;;;;;;6.95;5.10;;;;;;;;;;5114016;28;20086;-69
2021/08/15 03:26:46;;;;;;;7.57;4.63;;;;;;;;;;5114089;28;20027;-68
2021/08/15 03:29:13;;;;;;;5.80;4.68;;;;;;;;;;5114055;28;20039;-68
2021/08/15 03:31:39;;;;;;;8.38;4.10;;;;;;;;;;5112920;28;20476;-68
2021/08/15 03:34:05;;;;;;;6.53;4.60;;;;;;;;;;5113997;28;20035;-69
2021/08/15 03:36:31;;;;;;;6.20;3.92;;;;;;;;;;5113950;28;20059;-69
2021/08/15 03:38:57;;;;;;;9.52;4.63;;;;;;;;;;5114121;28;20032;-69
2021/08/15 03:41:23;;;;;;;9.82;4.45;;;;;;;;;;5113775;28;20028;-68
2021/08/15 03:43:49;;;;;;;9.15;4.50;;;;;;;;;;5113926;28;20361;-68
2021/08/15 03:46:15;;;;;;;8.05;4.32;;;;;;;;;;5113843;28;20024;-69
2021/08/15 03:48:41;;;;;;;7.25;4.50;;;;;;;;;;5114074;28;20035;-69
2021/08/15 03:51:07;;;;;;;5.72;4.13;;;;;;;;;;5113903;28;20035;-68
2021/08/15 03:53:33;;;;;;;5.20;4.28;;;;;;;;;;5113879;28;20038;-68
2021/08/15 03:55:59;;;;;;;10.60;4.55;;;;;;;;;;5113668;28;20048;-69
2021/08/15 03:58:25;;;;;;;8.75;4.68;;;;;;;;;;5113547;28;20609;-69
2021/08/15 04:00:51;;;;;;;7.85;4.50;;;;;;;;;;5113610;28;20044;-69
2021/08/15 04:03:17;;;;;;;7.47;4.60;;;;;;;;;;5113680;28;20527;-68
2021/08/15 04:05:43;;;;;;;10.65;4.85;;;;;;;;;;5113578;28;20035;-68
2021/08/15 04:08:09;;;;;;;8.80;5.65;;;;;;;;;;5113524;28;20468;-69
2021/08/15 04:10:36;;;;;;;9.82;5.60;;;;;;;;;;5113763;28;20502;-69
2021/08/15 04:13:02;;;;;;;9.75;6.05;;;;;;;;;;5113250;28;20079;-69
2021/08/15 04:15:28;;;;;;;8.25;5.88;;;;;;;;;;5113576;28;20043;-69
2021/08/15 04:17:54;;;;;;;11.23;5.95;;;;;;;;;;5113374;28;20058;-68
2021/08/15 04:20:21;;;;;;;7.68;5.43;;;;;;;;;;5113476;28;20032;-68
2021/08/15 04:22:47;;;;;;;13.48;5.70;;;;;;;;;;5113533;28;20031;-69
2021/08/15 04:25:13;;;;;;;8.75;5.15;;;;;;;;;;5095303;28;20380;-68
2021/08/15 04:27:39;;;;;;;6.68;4.75;;;;;;;;;;5113493;28;20039;-69
2021/08/15 04:30:07;;;;;;;6.35;4.82;;;;;;;;;;5113294;28;20039;-72
2021/08/15 04:32:33;;;;;;;12.07;4.88;;;;;;;;;;5113427;28;20436;-68
2021/08/15 04:34:59;;;;;;;11.02;5.22;;;;;;;;;;5113322;28;20036;-68
2021/08/15 04:37:25;;;;;;;11.10;5.05;;;;;;;;;;5113529;28;20031;-68
2021/08/15 04:39:51;;;;;;;6.32;4.53;;;;;;;;;;5113348;28;20158;-68
2021/08/15 04:42:18;;;;;;;6.85;4.90;;;;;;;;;;5113930;27;20047;-69
2021/08/15 04:44:44;;;;;;;9.77;5.00;;;;;;;;;;5117109;28;20543;-68
2021/08/15 04:47:10;;;;;;;7.53;4.68;;;;;;;;;;5117198;28;20036;-68
2021/08/15 04:49:37;;;;;;;8.32;4.60;;;;;;;;;;5117351;28;20031;-70
2021/08/15 04:52:03;;;;;;;11.95;5.43;;;;;;;;;;5117121;28;20039;-70
2021/08/15 04:54:29;;;;;;;11.13;4.97;;;;;;;;;;5116641;28;20434;-70
2021/08/15 04:56:56;;;;;;;12.07;5.10;;;;;;;;;;5117043;28;20035;-70
2021/08/15 04:59:22;;;;;;;12.40;4.75;;;;;;;;;;5117008;28;20080;-69
2021/08/15 05:01:48;;;;;;;5.53;4.68;;;;;;;;;;5116781;28;20038;-70
2021/08/15 05:04:14;;;;;;;9.13;5.60;;;;;;;;;;5116620;28;20035;-70
2021/08/15 05:06:40;;;;;;;7.65;4.90;;;;;;;;;;5116641;28;20115;-70
2021/08/15 05:09:06;;;;;;;8.13;4.88;;;;;;;;;;5116724;28;20031;-69
2021/08/15 05:11:32;;;;;;;9.38;4.80;;;;;;;;;;5116408;28;20024;-70
2021/08/15 05:13:59;;;;;;;8.73;5.63;;;;;;;;;;5116715;28;20031;-70
2021/08/15 05:16:25;;;;;;;12.07;5.03;;;;;;;;;;5116706;28;20116;-70
2021/08/15 05:18:51;;;;;;;7.35;4.80;;;;;;;;;;5116091;28;20560;-70
2021/08/15 05:21:17;;;;;;;12.05;4.45;;;;;;;;;;5116537;28;20028;-68
2021/08/15 05:23:44;;;;;;;7.65;5.43;;;;;;;;;;5116408;28;20044;-68
2021/08/15 05:26:10;;;;;;;10.13;5.47;;;;;;;;;;5116309;28;20122;-68
2021/08/15 05:28:36;;;;;;;11.32;5.45;;;;;;;;;;5116275;28;20027;-69
2021/08/15 05:31:02;;;;;;;6.95;5.35;;;;;;;;;;5116163;28;20036;-69
2021/08/15 05:33:28;;;;;;;13.95;5.55;;;;;;;;;;5116545;28;20036;-68
2021/08/15 05:35:55;;;;;;;9.40;5.93;;;;;;;;;;5116083;28;20040;-68
2021/08/15 05:38:21;;;;;;;8.73;5.60;;;;;;;;;;5116063;28;20040;-68
2021/08/15 05:40:47;;;;;;;10.18;5.82;;;;;;;;;;5116128;28;20062;-68
2021/08/15 05:43:13;;;;;;;7.05;5.30;;;;;;;;;;5115878;28;20467;-68
2021/08/15 05:45:39;;;;;;;10.57;5.47;;;;;;;;;;5115983;28;20038;-68
2021/08/15 05:48:06;;;;;;;6.25;4.68;;;;;;;;;;5116133;28;20042;-68
2021/08/15 05:50:32;;;;;;;8.27;5.60;;;;;;;;;;5115944;28;20047;-68
2021/08/15 05:52:58;;;;;;;10.07;4.93;;;;;;;;;;5115548;28;20023;-68
2021/08/15 05:55:24;;;;;;;8.88;5.05;;;;;;;;;;5114661;28;20500;-68
2021/08/15 05:57:50;;;;;;;9.63;6.00;;;;;;;;;;5115762;28;20429;-69
2021/08/15 06:00:17;;;;;;;7.82;5.68;;;;;;;;;;5115702;28;20092;-68
2021/08/15 06:02:43;;;;;;;8.50;5.32;;;;;;;;;;5115612;28;20055;-68
2021/08/15 06:05:13;;;;;;;10.00;5.25;;;;;;;;;;5115655;28;20039;-68
2021/08/15 06:07:40;;;;;;;9.25;5.50;;;;;;;;;;5116061;28;20035;-68
2021/08/15 06:10:07;;;;;;;9.05;5.32;;;;;;;;;;5115740;28;20032;-68
2021/08/15 06:12:34;;;;;;;7.65;5.47;;;;;;;;;;5115488;28;20541;-68
2021/08/15 06:15:01;;;;;;;7.65;5.50;;;;;;;;;;5115310;28;20047;-68
2021/08/15 06:17:27;;;;;;;9.13;5.40;;;;;;;;;;5115283;28;20430;-68
2021/08/15 06:19:53;;;;;;;11.05;5.90;;;;;;;;;;5115396;28;20092;-69
2021/08/15 06:22:19;;;;;;;13.10;5.78;;;;;;;;;;5115056;28;20031;-68
2021/08/15 06:24:46;;;;;;;7.50;5.20;;;;;;;;;;5115325;28;20100;-68
2021/08/15 06:27:12;;;;;;;19.17;5.90;;;;;;;;;;5114867;28;20539;-68
2021/08/15 06:29:38;;;;;;;9.27;5.28;;;;;;;;;;5115079;28;20027;-69
2021/08/15 06:32:04;;;;;;;11.07;5.63;;;;;;;;;;5114863;28;20398;-69
2021/08/15 06:34:30;;;;;;;13.07;5.68;;;;;;;;;;5114983;28;20048;-70
2021/08/15 06:36:56;;;;;;;6.10;5.15;;;;;;;;;;5114905;28;20431;-69
2021/08/15 06:39:22;;;;;;;11.30;5.15;;;;;;;;;;5114838;28;20032;-68
2021/08/15 06:41:48;;;;;;;9.25;5.07;;;;;;;;;;5114775;28;20550;-68
2021/08/15 06:44:14;;;;;;;9.43;4.72;;;;;;;;;;5114837;28;20067;-68
2021/08/15 06:46:40;;;;;;;7.13;4.70;;;;;;;;;;5114989;28;20407;-69
2021/08/15 06:49:06;;;;;;;6.68;4.95;;;;;;;;;;5115301;28;20482;-69
2021/08/15 06:51:32;;;;;;;8.77;4.65;;;;;;;;;;5114475;28;20114;-69
2021/08/15 06:53:59;;;;;;;9.50;4.78;;;;;;;;;;5114564;28;20106;-69
2021/08/15 06:56:25;;;;;;;10.30;4.63;;;;;;;;;;5114572;28;20051;-69
2021/08/15 06:58:51;;;;;;;8.00;4.30;;;;;;;;;;5114336;28;20123;-69
2021/08/15 07:01:18;;;;;;;7.32;4.50;;;;;;;;;;5114475;28;20063;-71
2021/08/15 07:03:44;;;;;;;10.20;5.45;;;;;;;;;;5114451;28;20069;-69
2021/08/15 07:06:10;;;;;;;7.15;5.22;;;;;;;;;;5114306;28;20122;-70
2021/08/15 07:08:36;;;;;;;9.05;4.88;;;;;;;;;;5114541;28;20107;-70
2021/08/15 07:11:02;;;;;;;11.48;4.80;;;;;;;;;;5114315;28;20042;-69
2021/08/15 07:13:28;;;;;;;7.30;4.82;;;;;;;;;;5114022;28;20508;-69
2021/08/15 07:15:54;;;;;;;9.93;5.00;;;;;;;;;;5114093;28;20047;-69
2021/08/15 07:18:21;;;;;;;8.02;5.10;;;;;;;;;;5114357;28;20043;-71
2021/08/15 07:20:48;;;;;;;8.50;4.82;;;;;;;;;;5114843;28;20122;-68
2021/08/15 07:23:14;;;;;;;11.90;4.97;;;;;;;;;;5114425;28;20023;-69
2021/08/15 07:25:41;;;;;;;10.60;4.72;;;;;;;;;;5114250;28;20044;-68
2021/08/15 07:28:07;;;;;;;7.63;4.88;;;;;;;;;;5113992;28;20450;-69
2021/08/15 07:30:33;;;;;;;7.53;4.88;;;;;;;;;;5114175;28;20043;-69
2021/08/15 07:33:00;;;;;;;11.20;5.05;;;;;;;;;;5113958;28;20383;-71
2021/08/15 07:35:27;;;;;;;7.05;4.90;;;;;;;;;;5113898;28;20109;-70
2021/08/15 07:37:53;;;;;;;7.85;4.95;;;;;;;;;;5113851;28;20031;-69
2021/08/15 07:40:19;;;;;;;7.15;4.38;;;;;;;;;;5114008;28;20051;-69
2021/08/15 07:42:46;;;;;;;6.00;4.35;;;;;;;;;;5113788;28;20046;-69
2021/08/15 07:45:13;;;;;;;8.65;4.75;;;;;;;;;;5113967;28;20395;-69
2021/08/15 07:47:39;;;;;;;7.85;4.97;;;;;;;;;;5113599;28;20161;-69
2021/08/15 07:50:06;;;;;;;6.15;4.68;;;;;;;;;;5113923;28;20085;-70
2021/08/15 07:52:32;;;;;;;6.75;4.60;;;;;;;;;;5113919;28;20046;-69
2021/08/15 07:54:58;;;;;;;7.10;4.60;;;;;;;;;;5113950;28;20039;-69
2021/08/15 07:57:26;;;;;;;7.07;4.80;;;;;;;;;;5113569;28;20028;-69
2021/08/15 07:59:52;;;;;;;7.97;4.20;;;;;;;;;;5113694;28;20044;-68
2021/08/15 08:02:18;;;;;;;10.90;4.60;;;;;;;;;;5113808;28;20027;-69
2021/08/15 08:04:44;;;;;;;6.60;4.10;;;;;;;;;;5113800;28;20038;-68
2021/08/15 08:07:10;;;;;;;9.43;4.35;;;;;;;;;;5113356;28;20494;-71
2021/08/15 08:09:36;;;;;;;9.32;4.85;;;;;;;;;;5113865;28;20361;-70
2021/08/15 08:12:03;;;;;;;15.75;5.15;;;;;;;;;;5113477;28;20079;-69
2021/08/15 08:14:29;;;;;;;10.02;4.80;;;;;;;;;;5113378;28;20046;-69
2021/08/15 08:16:55;;;;;;;8.07;4.70;;;;;;;;;;5113344;28;20072;-69
2021/08/15 08:19:21;;;;;;;7.60;4.45;;;;;;;;;;5117412;28;20126;-68
2021/08/15 08:21:47;;;;;;;8.15;4.80;;;;;;;;;;5117594;28;20027;-69
2021/08/15 08:24:13;;;;;;;7.05;4.47;;;;;;;;;;5117623;28;20066;-69
2021/08/15 08:26:39;;;;;;;15.35;4.70;;;;;;;;;;5117535;28;20034;-69
2021/08/15 08:29:05;;;;;;;8.52;4.88;;;;;;;;;;5117451;28;20410;-68
2021/08/15 08:31:31;;;;;;;8.63;5.18;;;;;;;;;;5117432;28;20123;-69
2021/08/15 08:33:57;;;;;;;10.07;5.68;;;;;;;;;;5117677;28;20062;-70
2021/08/15 08:36:23;;;;;;;14.02;5.70;;;;;;;;;;5117388;28;20117;-69
2021/08/15 08:38:49;;;;;;;6.85;4.95;;;;;;;;;;5117360;28;20420;-70
2021/08/15 08:41:16;;;;;;;12.55;5.43;;;;;;;;;;5117384;28;20400;-70
2021/08/15 08:43:42;;;;;;;11.23;5.78;;;;;;;;;;5116815;28;20028;-73
2021/08/15 08:46:10;;;;;;;9.52;5.05;;;;;;;;;;5117259;28;20032;-69
2021/08/15 08:48:36;;;;;;;9.32;5.68;;;;;;;;;;5117236;28;20032;-69
2021/08/15 08:51:02;;;;;;;11.70;5.63;;;;;;;;;;5117061;28;20035;-68
2021/08/15 08:53:29;;;;;;;9.65;5.57;;;;;;;;;;5116987;28;20024;-71
2021/08/15 08:55:55;;;;;;;6.38;5.63;;;;;;;;;;5117067;28;20129;-69
2021/08/15 08:58:21;;;;;;;11.38;6.30;;;;;;;;;;5116884;28;20115;-69
2021/08/15 09:00:49;;;;;;;15.43;6.60;;;;;;;;;;5116920;28;20067;-69
2021/08/15 09:03:15;;;;;;;9.77;6.10;;;;;;;;;;5116603;28;20036;-69
2021/08/15 09:05:50;;;;;;;13.65;7.47;;;;;;;;;;5116739;28;20028;-70
2021/08/15 09:08:26;;;;;;;10.25;6.97;;;;;;;;;;5116856;28;20028;-69
2021/08/15 09:10:52;;;;;;;14.40;7.90;;;;;;;;;;5116971;28;20035;-69
2021/08/15 09:13:25;;;;;;;12.52;6.95;;;;;;;;;;5116372;28;20048;-69
2021/08/15 09:15:56;;;;;;;11.27;7.10;;;;;;;;;;5116655;28;20050;-70
2021/08/15 09:18:32;;;;;;;10.83;7.87;;;;;;;;;;5116588;28;20141;-69
2021/08/15 09:20:58;;;;;;;14.93;8.05;;;;;;;;;;5116380;28;20103;-69
2021/08/15 09:23:31;;;;;;;12.32;7.60;;;;;;;;;;5116375;28;20039;-69
2021/08/15 09:26:09;;;;;;;12.07;8.00;;;;;;;;;;5116419;28;20049;-68
2021/08/15 09:28:35;;;;;;;14.70;7.57;;;;;;;;;;5115569;28;20031;-69
2021/08/15 09:31:34;;;;;;;12.10;8.05;;;;;;;;;;5115737;28;20035;-69
2021/08/15 09:34:03;;;;;;;8.25;7.05;;;;;;;;;;5060543;28;20081;-69
2021/08/15 09:36:32;;;;;;;10.70;7.38;;;;;;;;;;5116384;28;20089;-69
2021/08/15 09:39:00;;;;;;;8.77;6.90;;;;;;;;;;5116216;28;20028;-69
2021/08/15 09:41:27;;;;;;;12.52;7.18;;;;;;;;;;5115888;28;20040;-69
2021/08/15 09:44:11;;;;;;;12.18;7.82;;;;;;;;;;5115965;28;20468;-68
2021/08/15 09:46:55;;;;;;;10.88;7.38;;;;;;;;;;5115921;28;20028;-69
2021/08/15 09:49:21;;;;;;;14.45;7.00;;;;;;;;;;5116449;28;20123;-69
2021/08/15 09:51:47;;;;;;;10.63;7.30;;;;;;;;;;5115918;28;20027;-69
2021/08/15 09:54:18;;;;;;;13.20;7.15;;;;;;;;;;5115915;28;20039;-69
2021/08/15 09:56:44;;;;;;;8.30;6.95;;;;;;;;;;5115561;28;20104;-69
2021/08/15 09:59:15;;;;;;;11.45;8.10;;;;;;;;;;5115678;28;20111;-70
2021/08/15 10:01:41;;;;;;;11.50;6.57;;;;;;;;;;5115833;28;20035;-70
2021/08/15 10:04:08;;;;;;;14.27;6.57;;;;;;;;;;5115727;28;20036;-72
2021/08/15 10:06:38;;;;;;;18.05;6.68;;;;;;;;;;5115605;28;20378;-69
2021/08/15 10:09:04;;;;;;;16.95;6.53;;;;;;;;;;5115458;28;20063;-69
2021/08/15 10:11:31;;;;;;;12.15;6.85;;;;;;;;;;5115158;28;20528;-69
2021/08/15 10:13:59;;;;;;;12.77;7.40;;;;;;;;;;5115792;28;20040;-69
2021/08/15 10:16:28;;;;;;;10.52;6.45;;;;;;;;;;5115229;28;20044;-69
2021/08/15 10:18:55;;;;;;;12.85;6.65;;;;;;;;;;5115642;28;20112;-69
2021/08/15 10:21:22;;;;;;;12.23;7.25;;;;;;;;;;5115391;28;20127;-69
2021/08/15 10:23:48;;;;;;;12.82;6.57;;;;;;;;;;5115396;28;20124;-71
2021/08/15 10:26:26;;;;;;;10.95;6.75;;;;;;;;;;5115330;28;20032;-69
2021/08/15 10:28:53;;;;;;;15.70;6.53;;;;;;;;;;5115042;28;20058;-71
2021/08/15 10:31:19;;;;;;;9.95;5.63;;;;;;;;;;5115054;28;20028;-69
2021/08/15 10:33:56;;;;;;;11.50;6.30;;;;;;;;;;5115116;28;20136;-69
2021/08/15 10:36:24;;;;;;;9.63;6.43;;;;;;;;;;5115027;28;20063;-69
2021/08/15 10:38:51;;;;;;;10.65;5.88;;;;;;;;;;5114806;28;20380;-69
2021/08/15 10:41:35;;;;;;;9.32;6.13;;;;;;;;;;5114330;28;20039;-69
2021/08/15 10:44:02;;;;;;;10.90;5.55;;;;;;;;;;5114873;28;20429;-69
2021/08/15 10:46:28;;;;;;;16.20;6.32;;;;;;;;;;5114999;28;20028;-69
2021/08/15 10:48:57;;;;;;;14.38;6.57;;;;;;;;;;5114526;28;20450;-68
2021/08/15 10:51:41;;;;;;;13.40;6.50;;;;;;;;;;5114713;28;20036;-69
2021/08/15 10:54:07;;;;;;;16.45;6.28;;;;;;;;;;5114922;28;20035;-69
2021/08/15 10:56:53;;;;;;;8.32;5.55;;;;;;;;;;5114615;28;20082;-69
2021/08/15 10:59:34;;;;;;;13.05;6.15;;;;;;;;;;5113765;28;20120;-68
2021/08/15 11:02:10;;;;;;;18.27;7.68;;;;;;;;;;5115099;28;20042;-70
2021/08/15 11:04:37;;;;;;;9.15;5.90;;;;;;;;;;5114863;28;20035;-70
2021/08/15 11:07:03;;;;;;;9.52;5.95;;;;;;;;;;5114569;28;20035;-69
2021/08/15 11:09:55;;;;;;;17.70;6.03;;;;;;;;;;5114346;28;20038;-69
2021/08/15 11:12:21;;;;;;;13.20;5.70;;;;;;;;;;5109578;28;20040;-70
2021/08/15 11:15:02;;;;;;;6.40;5.57;;;;;;;;;;5114361;28;20044;-71
2021/08/15 11:17:29;;;;;;;7.80;5.97;;;;;;;;;;5114771;28;20387;-69
2021/08/15 11:19:56;;;;;;;17.65;5.95;;;;;;;;;;5114296;28;20035;-69
2021/08/15 19:02:40;;;;;;;6.15;3.75;;;;;;;;;;5099880;28;20699;-69
2021/08/15 19:05:07;;;;;;;11.10;3.72;;;;;;;;;;5091300;28;20081;-67
2021/08/15 19:07:34;;;;;;;61.67;5.88;;;;;;;;;;5093885;28;20082;-68
2021/08/15 19:10:00;;;;;;;14.32;4.00;;;;;;;;;;5094370;28;20114;-68
2021/08/15 19:12:26;;;;;;;25.33;7.07;;;;;;;;;;5094158;28;20032;-68
2021/08/15 19:14:52;;;;;;;17.27;6.05;;;;;;;;;;5093740;28;20058;-67
2021/08/15 19:17:18;;;;;;;16.67;6.32;;;;;;;;;;5094466;28;20036;-68
2021/08/15 19:19:44;;;;;;;90.10;24.55;;;;;;;;;;5093857;28;20032;-68
2021/08/15 19:22:13;;;;;;;37.58;11.32;;;;;;;;;;5093589;28;20064;-67
2021/08/15 19:24:39;;;;;;;53.15;12.65;;;;;;;;;;5093809;28;20035;-67
2021/08/15 19:27:05;;;;;;;35.65;12.02;;;;;;;;;;5093914;28;20130;-67
2021/08/15 19:29:31;;;;;;;21.17;7.25;;;;;;;;;;5093260;28;20119;-68
2021/08/15 19:31:57;;;;;;;9.82;5.72;;;;;;;;;;5093698;28;20475;-67
2021/08/15 19:34:24;;;;;;;14.82;4.63;;;;;;;;;;5093665;28;20116;-67
2021/08/15 19:36:50;;;;;;;13.00;4.93;;;;;;;;;;5093340;28;20047;-68
2021/08/15 19:39:16;;;;;;;12.70;5.30;;;;;;;;;;5093605;28;20039;-69
2021/08/15 19:41:42;;;;;;;7.53;5.20;;;;;;;;;;5094082;28;20036;-67
2021/08/15 19:44:08;;;;;;;9.40;5.20;;;;;;;;;;5093146;28;20036;-67
2021/08/15 19:46:34;;;;;;;7.85;4.88;;;;;;;;;;5093432;28;20028;-68
2021/08/15 19:49:00;;;;;;;13.80;5.18;;;;;;;;;;5093559;28;20032;-69
2021/08/15 19:51:26;;;;;;;9.15;4.68;;;;;;;;;;5093467;28;20143;-68
2021/08/15 19:53:52;;;;;;;8.02;5.72;;;;;;;;;;5093638;28;20365;-68
2021/08/15 19:56:18;;;;;;;9.32;5.00;;;;;;;;;;5093353;28;20127;-67
2021/08/15 19:58:44;;;;;;;9.52;5.18;;;;;;;;;;5093068;28;20035;-69
2021/08/15 20:01:10;;;;;;;10.57;5.05;;;;;;;;;;5093343;28;20066;-68
2021/08/15 20:03:37;;;;;;;13.48;6.28;;;;;;;;;;5093083;28;20040;-68
2021/08/15 20:06:04;;;;;;;10.75;4.93;;;;;;;;;;5093012;28;20101;-68
2021/08/15 20:08:30;;;;;;;14.10;5.35;;;;;;;;;;5093337;28;20027;-69
2021/08/15 20:10:57;;;;;;;12.23;5.32;;;;;;;;;;5093534;28;20036;-69
2021/08/15 20:13:23;;;;;;;14.32;4.63;;;;;;;;;;5093782;28;20437;-68
2021/08/15 20:15:49;;;;;;;11.55;4.93;;;;;;;;;;5097487;28;20481;-68
2021/08/15 20:18:15;;;;;;;18.08;4.43;;;;;;;;;;5097321;28;20142;-68
2021/08/15 20:20:43;;;;;;;9.73;4.60;;;;;;;;;;5096799;28;20047;-68
2021/08/15 20:23:09;;;;;;;9.60;4.38;;;;;;;;;;5097227;28;20403;-70
2021/08/15 20:25:35;;;;;;;6.60;4.60;;;;;;;;;;5097039;28;20101;-68
2021/08/15 20:28:01;;;;;;;10.13;4.68;;;;;;;;;;5097035;28;20396;-69
2021/08/15 20:30:27;;;;;;;13.32;5.10;;;;;;;;;;5096902;28;20036;-69
2021/08/15 20:32:53;;;;;;;8.35;5.25;;;;;;;;;;5096942;28;20070;-69
2021/08/15 20:35:19;;;;;;;9.07;5.28;;;;;;;;;;5096585;28;20558;-69
2021/08/15 20:37:48;;;;;;;9.70;5.03;;;;;;;;;;5096768;28;20530;-69
2021/08/15 20:40:14;;;;;;;12.38;6.05;;;;;;;;;;5096615;28;20423;-68
2021/08/15 20:42:40;;;;;;;11.95;6.20;;;;;;;;;;5096516;28;20024;-68
2021/08/15 20:45:07;;;;;;;14.60;6.22;;;;;;;;;;5096808;28;20032;-68
2021/08/15 20:47:33;;;;;;;16.50;5.97;;;;;;;;;;5096699;28;20115;-68
2021/08/15 20:49:59;;;;;;;11.68;6.20;;;;;;;;;;5096814;28;20036;-69
2021/08/15 20:52:25;;;;;;;12.30;6.45;;;;;;;;;;5096334;28;20032;-68
2021/08/15 20:54:53;;;;;;;10.43;5.75;;;;;;;;;;5096151;28;20246;-68
2021/08/15 20:57:19;;;;;;;9.38;5.70;;;;;;;;;;5096191;28;20366;-68
2021/08/15 20:59:45;;;;;;;11.40;5.50;;;;;;;;;;5096240;28;20036;-68
2021/08/15 21:02:11;;;;;;;18.92;5.55;;;;;;;;;;5095962;28;20032;-69
2021/08/15 21:04:37;;;;;;;9.38;5.30;;;;;;;;;;5096329;28;20032;-68
2021/08/15 21:07:03;;;;;;;10.05;5.57;;;;;;;;;;5095902;28;20040;-68
2021/08/15 21:09:30;;;;;;;8.63;4.78;;;;;;;;;;5096263;28;20035;-68
2021/08/15 21:11:56;;;;;;;7.15;4.95;;;;;;;;;;5095889;28;20118;-68
2021/08/15 21:14:22;;;;;;;10.50;4.70;;;;;;;;;;5095954;28;20028;-68
2021/08/15 21:16:48;;;;;;;7.43;4.65;;;;;;;;;;5096152;28;20063;-68
2021/08/15 21:19:14;;;;;;;9.88;4.57;;;;;;;;;;5095849;28;20071;-68
2021/08/15 21:21:40;;;;;;;8.18;4.22;;;;;;;;;;5095953;28;20072;-68
2021/08/15 21:24:06;;;;;;;9.30;4.18;;;;;;;;;;5095381;28;20063;-68
2021/08/15 21:26:33;;;;;;;10.30;5.30;;;;;;;;;;5095868;28;20047;-68
2021/08/15 21:29:00;;;;;;;7.63;4.43;;;;;;;;;;5095968;28;20476;-69
2021/08/15 21:31:26;;;;;;;11.45;4.82;;;;;;;;;;5095929;28;20440;-69
2021/08/15 21:33:56;;;;;;;10.63;4.70;;;;;;;;;;5095589;28;20059;-68
2021/08/15 21:36:23;;;;;;;12.60;4.43;;;;;;;;;;5095568;28;20399;-71
2021/08/15 21:38:49;;;;;;;14.75;4.72;;;;;;;;;;5095435;28;20025;-69
2021/08/15 21:41:15;;;;;;;14.35;4.95;;;;;;;;;;5095813;28;20044;-70
2021/08/15 21:43:41;;;;;;;8.82;4.18;;;;;;;;;;5095514;28;20039;-73
2021/08/15 21:46:07;;;;;;;12.88;4.65;;;;;;;;;;5095410;28;20063;-68
2021/08/15 21:48:33;;;;;;;10.13;4.97;;;;;;;;;;5095740;28;20028;-69
2021/08/15 21:50:59;;;;;;;9.82;4.68;;;;;;;;;;5095357;28;20115;-71
2021/08/15 21:53:25;;;;;;;9.73;5.15;;;;;;;;;;5095382;28;20036;-70
2021/08/15 21:55:51;;;;;;;9.88;3.95;;;;;;;;;;5095293;28;20066;-71
2021/08/15 21:58:17;;;;;;;10.25;4.22;;;;;;;;;;5095162;28;20477;-70
2021/08/15 22:00:43;;;;;;;7.50;3.90;;;;;;;;;;5095406;28;20032;-70
2021/08/15 22:03:09;;;;;;;13.98;4.75;;;;;;;;;;5095085;28;20055;-68
2021/08/15 22:05:36;;;;;;;9.25;4.10;;;;;;;;;;5095233;28;20111;-68
2021/08/15 22:08:05;;;;;;;7.80;4.22;;;;;;;;;;5094774;28;20040;-69
2021/08/15 22:10:31;;;;;;;4.43;3.60;;;;;;;;;;5095075;28;20032;-70
2021/08/15 22:12:57;;;;;;;9.55;4.20;;;;;;;;;;5094945;28;20036;-74
2021/08/15 22:15:23;;;;;;;9.25;4.00;;;;;;;;;;5095078;28;20069;-70